sensor_id;sensor_type;location;lat;lon;timestamp;pressure;altitude;pressure_sealevel;temperature
20736;BMP180;10528;52.124;5.196;2023-11-18T00:02:15;102225.00;;;11.60
20736;BMP180;10528;52.124;5.196;2023-11-18T00:04:42;102216.00;;;11.60
20736;BMP180;10528;52.124;5.196;2023-11-18T00:07:09;102218.00;;;11.60
20736;BMP180;10528;52.124;5.196;2023-11-18T00:09:36;102217.00;;;11.60
20736;BMP180;10528;52.124;5.196;2023-11-18T00:12:04;102205.00;;;11.60
20736;BMP180;10528;52.124;5.196;2023-11-18T00:14:31;102209.00;;;11.60
20736;BMP180;10528;52.124;5.196;2023-11-18T00:16:57;102212.00;;;11.60
20736;BMP180;10528;52.124;5.196;2023-11-18T00:19:26;102210.00;;;11.60
20736;BMP180;10528;52.124;5.196;2023-11-18T00:21:53;102208.00;;;11.60
20736;BMP180;10528;52.124;5.196;2023-11-18T00:24:20;102214.00;;;11.60
20736;BMP180;10528;52.124;5.196;2023-11-18T00:26:47;102202.00;;;11.60
20736;BMP180;10528;52.124;5.196;2023-11-18T00:29:14;102216.00;;;11.60
20736;BMP180;10528;52.124;5.196;2023-11-18T00:31:41;102208.00;;;11.70
20736;BMP180;10528;52.124;5.196;2023-11-18T00:34:09;102203.00;;;11.70
20736;BMP180;10528;52.124;5.196;2023-11-18T00:36:37;102203.00;;;11.70
20736;BMP180;10528;52.124;5.196;2023-11-18T00:39:04;102207.00;;;11.70
20736;BMP180;10528;52.124;5.196;2023-11-18T00:41:32;102207.00;;;11.80
20736;BMP180;10528;52.124;5.196;2023-11-18T00:44:00;102209.00;;;11.80
20736;BMP180;10528;52.124;5.196;2023-11-18T00:46:27;102205.00;;;11.80
20736;BMP180;10528;52.124;5.196;2023-11-18T00:48:54;102199.00;;;11.90
20736;BMP180;10528;52.124;5.196;2023-11-18T00:51:21;102218.00;;;11.90
20736;BMP180;10528;52.124;5.196;2023-11-18T00:53:48;102212.00;;;11.90
20736;BMP180;10528;52.124;5.196;2023-11-18T00:56:18;102222.00;;;11.90
20736;BMP180;10528;52.124;5.196;2023-11-18T00:58:45;102223.00;;;12.00
20736;BMP180;10528;52.124;5.196;2023-11-18T01:01:12;102227.00;;;12.00
20736;BMP180;10528;52.124;5.196;2023-11-18T01:03:39;102227.00;;;12.00
20736;BMP180;10528;52.124;5.196;2023-11-18T01:06:06;102219.00;;;12.00
20736;BMP180;10528;52.124;5.196;2023-11-18T01:08:33;102217.00;;;12.00
20736;BMP180;10528;52.124;5.196;2023-11-18T01:11:00;102219.00;;;12.10
20736;BMP180;10528;52.124;5.196;2023-11-18T01:13:27;102214.00;;;12.10
20736;BMP180;10528;52.124;5.196;2023-11-18T01:15:54;102209.00;;;12.00
20736;BMP180;10528;52.124;5.196;2023-11-18T01:18:20;102213.00;;;12.00
20736;BMP180;10528;52.124;5.196;2023-11-18T01:20:48;102214.00;;;12.00
20736;BMP180;10528;52.124;5.196;2023-11-18T01:23:15;102222.00;;;12.00
20736;BMP180;10528;52.124;5.196;2023-11-18T01:25:42;102218.00;;;12.00
20736;BMP180;10528;52.124;5.196;2023-11-18T01:28:09;102211.00;;;12.00
20736;BMP180;10528;52.124;5.196;2023-11-18T01:30:37;102203.00;;;12.00
20736;BMP180;10528;52.124;5.196;2023-11-18T01:33:04;102215.00;;;12.00
20736;BMP180;10528;52.124;5.196;2023-11-18T01:35:31;102219.00;;;12.00
20736;BMP180;10528;52.124;5.196;2023-11-18T01:37:58;102227.00;;;12.00
20736;BMP180;10528;52.124;5.196;2023-11-18T01:40:25;102215.00;;;12.00
20736;BMP180;10528;52.124;5.196;2023-11-18T01:42:52;102232.00;;;12.00
20736;BMP180;10528;52.124;5.196;2023-11-18T01:45:19;102226.00;;;12.00
20736;BMP180;10528;52.124;5.196;2023-11-18T01:47:47;102225.00;;;12.00
20736;BMP180;10528;52.124;5.196;2023-11-18T01:50:17;102222.00;;;12.00
20736;BMP180;10528;52.124;5.196;2023-11-18T01:52:46;102211.00;;;12.00
20736;BMP180;10528;52.124;5.196;2023-11-18T01:55:14;102209.00;;;12.00
20736;BMP180;10528;52.124;5.196;2023-11-18T01:57:41;102206.00;;;12.10
20736;BMP180;10528;52.124;5.196;2023-11-18T02:00:11;102220.00;;;12.10
20736;BMP180;10528;52.124;5.196;2023-11-18T02:02:41;102225.00;;;12.10
20736;BMP180;10528;52.124;5.196;2023-11-18T02:05:08;102218.00;;;12.10
20736;BMP180;10528;52.124;5.196;2023-11-18T02:07:35;102221.00;;;12.10
20736;BMP180;10528;52.124;5.196;2023-11-18T02:10:05;102227.00;;;12.10
20736;BMP180;10528;52.124;5.196;2023-11-18T02:15:10;102223.00;;;12.10
20736;BMP180;10528;52.124;5.196;2023-11-18T02:17:41;102235.00;;;12.10
20736;BMP180;10528;52.124;5.196;2023-11-18T02:20:12;102229.00;;;12.10
20736;BMP180;10528;52.124;5.196;2023-11-18T02:22:48;102229.00;;;12.10
20736;BMP180;10528;52.124;5.196;2023-11-18T02:25:17;102240.00;;;12.10
20736;BMP180;10528;52.124;5.196;2023-11-18T02:27:46;102238.00;;;12.10
20736;BMP180;10528;52.124;5.196;2023-11-18T02:30:16;102241.00;;;12.10
20736;BMP180;10528;52.124;5.196;2023-11-18T02:35:29;102226.00;;;12.10
20736;BMP180;10528;52.124;5.196;2023-11-18T02:37:59;102223.00;;;12.10
20736;BMP180;10528;52.124;5.196;2023-11-18T02:40:33;102218.00;;;12.10
20736;BMP180;10528;52.124;5.196;2023-11-18T02:43:05;102216.00;;;12.10
20736;BMP180;10528;52.124;5.196;2023-11-18T02:45:35;102216.00;;;12.10
20736;BMP180;10528;52.124;5.196;2023-11-18T02:48:04;102212.00;;;12.20
20736;BMP180;10528;52.124;5.196;2023-11-18T02:50:33;102191.00;;;12.10
20736;BMP180;10528;52.124;5.196;2023-11-18T02:53:02;102197.00;;;12.10
20736;BMP180;10528;52.124;5.196;2023-11-18T02:55:29;102195.00;;;12.10
20736;BMP180;10528;52.124;5.196;2023-11-18T02:57:56;102188.00;;;12.10
20736;BMP180;10528;52.124;5.196;2023-11-18T03:00:24;102192.00;;;12.10
20736;BMP180;10528;52.124;5.196;2023-11-18T03:02:51;102189.00;;;12.10
20736;BMP180;10528;52.124;5.196;2023-11-18T03:05:20;102191.00;;;12.10
20736;BMP180;10528;52.124;5.196;2023-11-18T03:07:48;102185.00;;;12.10
20736;BMP180;10528;52.124;5.196;2023-11-18T03:10:21;102185.00;;;12.10
20736;BMP180;10528;52.124;5.196;2023-11-18T03:12:50;102189.00;;;12.10
20736;BMP180;10528;52.124;5.196;2023-11-18T03:15:17;102190.00;;;12.10
20736;BMP180;10528;52.124;5.196;2023-11-18T03:17:46;102179.00;;;12.10
20736;BMP180;10528;52.124;5.196;2023-11-18T03:20:16;102177.00;;;12.10
20736;BMP180;10528;52.124;5.196;2023-11-18T03:22:45;102182.00;;;12.10
20736;BMP180;10528;52.124;5.196;2023-11-18T03:25:13;102182.00;;;12.10
20736;BMP180;10528;52.124;5.196;2023-11-18T03:27:41;102183.00;;;12.10
20736;BMP180;10528;52.124;5.196;2023-11-18T03:30:09;102185.00;;;12.10
20736;BMP180;10528;52.124;5.196;2023-11-18T03:32:38;102177.00;;;12.10
20736;BMP180;10528;52.124;5.196;2023-11-18T03:35:07;102167.00;;;12.20
20736;BMP180;10528;52.124;5.196;2023-11-18T03:37:40;102163.00;;;12.20
20736;BMP180;10528;52.124;5.196;2023-11-18T03:40:14;102158.00;;;12.20
20736;BMP180;10528;52.124;5.196;2023-11-18T03:42:42;102154.00;;;12.20
20736;BMP180;10528;52.124;5.196;2023-11-18T03:45:09;102144.00;;;12.20
20736;BMP180;10528;52.124;5.196;2023-11-18T03:47:37;102133.00;;;12.20
20736;BMP180;10528;52.124;5.196;2023-11-18T03:50:05;102127.00;;;12.20
20736;BMP180;10528;52.124;5.196;2023-11-18T03:52:32;102114.00;;;12.20
20736;BMP180;10528;52.124;5.196;2023-11-18T03:55:03;102112.00;;;12.20
20736;BMP180;10528;52.124;5.196;2023-11-18T03:57:32;102106.00;;;12.20
20736;BMP180;10528;52.124;5.196;2023-11-18T03:59:59;102106.00;;;12.20
20736;BMP180;10528;52.124;5.196;2023-11-18T04:02:26;102096.00;;;12.20
20736;BMP180;10528;52.124;5.196;2023-11-18T04:04:53;102097.00;;;12.20
20736;BMP180;10528;52.124;5.196;2023-11-18T04:07:20;102093.00;;;12.20
20736;BMP180;10528;52.124;5.196;2023-11-18T04:09:48;102082.00;;;12.20
20736;BMP180;10528;52.124;5.196;2023-11-18T04:12:15;102088.00;;;12.20
20736;BMP180;10528;52.124;5.196;2023-11-18T04:14:42;102103.00;;;12.20
20736;BMP180;10528;52.124;5.196;2023-11-18T04:17:09;102093.00;;;12.20
20736;BMP180;10528;52.124;5.196;2023-11-18T04:19:37;102091.00;;;12.20
20736;BMP180;10528;52.124;5.196;2023-11-18T04:22:05;102072.00;;;12.20
20736;BMP180;10528;52.124;5.196;2023-11-18T04:24:32;102085.00;;;12.20
20736;BMP180;10528;52.124;5.196;2023-11-18T04:27:02;102077.00;;;12.20
20736;BMP180;10528;52.124;5.196;2023-11-18T04:29:29;102066.00;;;12.20
20736;BMP180;10528;52.124;5.196;2023-11-18T04:31:56;102072.00;;;12.20
20736;BMP180;10528;52.124;5.196;2023-11-18T04:34:23;102062.00;;;12.20
20736;BMP180;10528;52.124;5.196;2023-11-18T04:36:51;102065.00;;;12.30
20736;BMP180;10528;52.124;5.196;2023-11-18T04:39:18;102051.00;;;12.20
20736;BMP180;10528;52.124;5.196;2023-11-18T04:41:46;102059.00;;;12.30
20736;BMP180;10528;52.124;5.196;2023-11-18T04:44:13;102045.00;;;12.30
20736;BMP180;10528;52.124;5.196;2023-11-18T04:46:40;102042.00;;;12.30
20736;BMP180;10528;52.124;5.196;2023-11-18T04:49:07;102046.00;;;12.30
20736;BMP180;10528;52.124;5.196;2023-11-18T04:51:34;102035.00;;;12.30
20736;BMP180;10528;52.124;5.196;2023-11-18T04:54:02;102042.00;;;12.30
20736;BMP180;10528;52.124;5.196;2023-11-18T04:56:30;102046.00;;;12.30
20736;BMP180;10528;52.124;5.196;2023-11-18T04:58:57;102050.00;;;12.30
20736;BMP180;10528;52.124;5.196;2023-11-18T05:01:24;102041.00;;;12.30
20736;BMP180;10528;52.124;5.196;2023-11-18T05:03:51;102043.00;;;12.30
20736;BMP180;10528;52.124;5.196;2023-11-18T05:06:18;102052.00;;;12.30
20736;BMP180;10528;52.124;5.196;2023-11-18T05:08:46;102046.00;;;12.40
20736;BMP180;10528;52.124;5.196;2023-11-18T05:11:13;102056.00;;;12.40
20736;BMP180;10528;52.124;5.196;2023-11-18T05:13:41;102051.00;;;12.40
20736;BMP180;10528;52.124;5.196;2023-11-18T05:16:08;102049.00;;;12.40
20736;BMP180;10528;52.124;5.196;2023-11-18T05:18:37;102051.00;;;12.40
20736;BMP180;10528;52.124;5.196;2023-11-18T05:21:06;102046.00;;;12.40
20736;BMP180;10528;52.124;5.196;2023-11-18T05:23:36;102033.00;;;12.40
20736;BMP180;10528;52.124;5.196;2023-11-18T05:26:03;102032.00;;;12.40
20736;BMP180;10528;52.124;5.196;2023-11-18T05:28:33;102032.00;;;12.40
20736;BMP180;10528;52.124;5.196;2023-11-18T05:31:01;102022.00;;;12.40
20736;BMP180;10528;52.124;5.196;2023-11-18T05:33:29;102018.00;;;12.40
20736;BMP180;10528;52.124;5.196;2023-11-18T05:35:57;102027.00;;;12.40
20736;BMP180;10528;52.124;5.196;2023-11-18T05:38:23;102011.00;;;12.40
20736;BMP180;10528;52.124;5.196;2023-11-18T05:40:55;102011.00;;;12.40
20736;BMP180;10528;52.124;5.196;2023-11-18T05:43:26;102007.00;;;12.40
20736;BMP180;10528;52.124;5.196;2023-11-18T05:45:56;101995.00;;;12.40
20736;BMP180;10528;52.124;5.196;2023-11-18T05:48:45;101999.00;;;12.40
20736;BMP180;10528;52.124;5.196;2023-11-18T05:51:12;101998.00;;;12.40
20736;BMP180;10528;52.124;5.196;2023-11-18T05:53:43;101983.00;;;12.40
20736;BMP180;10528;52.124;5.196;2023-11-18T05:56:14;101980.00;;;12.40
20736;BMP180;10528;52.124;5.196;2023-11-18T05:58:43;101984.00;;;12.40
20736;BMP180;10528;52.124;5.196;2023-11-18T06:01:15;101982.00;;;12.40
20736;BMP180;10528;52.124;5.196;2023-11-18T06:03:44;101989.00;;;12.40
20736;BMP180;10528;52.124;5.196;2023-11-18T06:06:14;101983.00;;;12.40
20736;BMP180;10528;52.124;5.196;2023-11-18T06:08:48;101978.00;;;12.50
20736;BMP180;10528;52.124;5.196;2023-11-18T06:11:16;101981.00;;;12.50
20736;BMP180;10528;52.124;5.196;2023-11-18T06:13:51;101973.00;;;12.40
20736;BMP180;10528;52.124;5.196;2023-11-18T06:16:21;101977.00;;;12.50
20736;BMP180;10528;52.124;5.196;2023-11-18T06:18:54;101975.00;;;12.50
20736;BMP180;10528;52.124;5.196;2023-11-18T06:21:24;101977.00;;;12.50
20736;BMP180;10528;52.124;5.196;2023-11-18T06:23:52;101979.00;;;12.50
20736;BMP180;10528;52.124;5.196;2023-11-18T06:26:21;101965.00;;;12.50
20736;BMP180;10528;52.124;5.196;2023-11-18T06:28:48;101963.00;;;12.50
20736;BMP180;10528;52.124;5.196;2023-11-18T06:31:18;101957.00;;;12.50
20736;BMP180;10528;52.124;5.196;2023-11-18T06:33:47;101962.00;;;12.50
20736;BMP180;10528;52.124;5.196;2023-11-18T06:36:16;101966.00;;;12.50
20736;BMP180;10528;52.124;5.196;2023-11-18T06:38:45;101971.00;;;12.50
20736;BMP180;10528;52.124;5.196;2023-11-18T06:41:13;101980.00;;;12.50
20736;BMP180;10528;52.124;5.196;2023-11-18T06:43:44;101982.00;;;12.50
20736;BMP180;10528;52.124;5.196;2023-11-18T06:46:31;101964.00;;;12.50
20736;BMP180;10528;52.124;5.196;2023-11-18T06:49:03;101953.00;;;12.50
20736;BMP180;10528;52.124;5.196;2023-11-18T06:51:35;101967.00;;;12.50
20736;BMP180;10528;52.124;5.196;2023-11-18T06:54:07;101981.00;;;12.50
20736;BMP180;10528;52.124;5.196;2023-11-18T06:56:40;101968.00;;;12.50
20736;BMP180;10528;52.124;5.196;2023-11-18T06:59:12;101970.00;;;12.50
20736;BMP180;10528;52.124;5.196;2023-11-18T07:01:42;101967.00;;;12.50
20736;BMP180;10528;52.124;5.196;2023-11-18T07:04:11;101966.00;;;12.50
20736;BMP180;10528;52.124;5.196;2023-11-18T07:06:38;101962.00;;;12.50
20736;BMP180;10528;52.124;5.196;2023-11-18T07:09:06;101962.00;;;12.50
20736;BMP180;10528;52.124;5.196;2023-11-18T07:11:41;101964.00;;;12.50
20736;BMP180;10528;52.124;5.196;2023-11-18T07:14:09;101970.00;;;12.50
20736;BMP180;10528;52.124;5.196;2023-11-18T07:16:41;101969.00;;;12.50
20736;BMP180;10528;52.124;5.196;2023-11-18T07:19:08;101972.00;;;12.50
20736;BMP180;10528;52.124;5.196;2023-11-18T07:21:47;101978.00;;;12.50
20736;BMP180;10528;52.124;5.196;2023-11-18T07:24:15;101984.00;;;12.60
20736;BMP180;10528;52.124;5.196;2023-11-18T07:26:44;101984.00;;;12.60
20736;BMP180;10528;52.124;5.196;2023-11-18T07:29:12;101980.00;;;12.60
20736;BMP180;10528;52.124;5.196;2023-11-18T07:31:39;101995.00;;;12.60
20736;BMP180;10528;52.124;5.196;2023-11-18T07:34:06;101983.00;;;12.60
20736;BMP180;10528;52.124;5.196;2023-11-18T07:36:33;101998.00;;;12.60
20736;BMP180;10528;52.124;5.196;2023-11-18T07:39:00;101985.00;;;12.60
20736;BMP180;10528;52.124;5.196;2023-11-18T07:41:31;101993.00;;;12.60
20736;BMP180;10528;52.124;5.196;2023-11-18T07:44:00;101980.00;;;12.60
20736;BMP180;10528;52.124;5.196;2023-11-18T07:46:27;101980.00;;;12.60
20736;BMP180;10528;52.124;5.196;2023-11-18T07:48:57;101975.00;;;12.60
20736;BMP180;10528;52.124;5.196;2023-11-18T07:51:24;101968.00;;;12.60
20736;BMP180;10528;52.124;5.196;2023-11-18T07:53:52;101968.00;;;12.60
20736;BMP180;10528;52.124;5.196;2023-11-18T07:56:22;101975.00;;;12.60
20736;BMP180;10528;52.124;5.196;2023-11-18T07:58:50;101967.00;;;12.60
20736;BMP180;10528;52.124;5.196;2023-11-18T08:01:19;101971.00;;;12.60
20736;BMP180;10528;52.124;5.196;2023-11-18T08:03:48;101968.00;;;12.60
20736;BMP180;10528;52.124;5.196;2023-11-18T08:06:15;101964.00;;;12.60
20736;BMP180;10528;52.124;5.196;2023-11-18T08:08:42;101968.00;;;12.70
20736;BMP180;10528;52.124;5.196;2023-11-18T08:11:12;101952.00;;;12.60
20736;BMP180;10528;52.124;5.196;2023-11-18T08:13:39;101945.00;;;12.60
20736;BMP180;10528;52.124;5.196;2023-11-18T08:16:07;101933.00;;;12.60
20736;BMP180;10528;52.124;5.196;2023-11-18T08:18:35;101928.00;;;12.60
20736;BMP180;10528;52.124;5.196;2023-11-18T08:21:02;101937.00;;;12.60
20736;BMP180;10528;52.124;5.196;2023-11-18T08:23:31;101926.00;;;12.60
20736;BMP180;10528;52.124;5.196;2023-11-18T08:25:58;101927.00;;;12.60
20736;BMP180;10528;52.124;5.196;2023-11-18T08:28:25;101921.00;;;12.70
20736;BMP180;10528;52.124;5.196;2023-11-18T08:30:52;101919.00;;;12.70
20736;BMP180;10528;52.124;5.196;2023-11-18T08:33:21;101921.00;;;12.70
20736;BMP180;10528;52.124;5.196;2023-11-18T08:35:51;101909.00;;;12.70
20736;BMP180;10528;52.124;5.196;2023-11-18T08:38:18;101906.00;;;12.70
20736;BMP180;10528;52.124;5.196;2023-11-18T08:40:46;101901.00;;;12.70
20736;BMP180;10528;52.124;5.196;2023-11-18T08:43:15;101901.00;;;12.70
20736;BMP180;10528;52.124;5.196;2023-11-18T08:45:43;101905.00;;;12.70
20736;BMP180;10528;52.124;5.196;2023-11-18T08:48:10;101900.00;;;12.70
20736;BMP180;10528;52.124;5.196;2023-11-18T08:50:38;101896.00;;;12.80
20736;BMP180;10528;52.124;5.196;2023-11-18T08:53:10;101888.00;;;12.80
20736;BMP180;10528;52.124;5.196;2023-11-18T08:55:39;101865.00;;;12.80
20736;BMP180;10528;52.124;5.196;2023-11-18T08:58:11;101865.00;;;12.80
20736;BMP180;10528;52.124;5.196;2023-11-18T09:00:52;101863.00;;;12.80
20736;BMP180;10528;52.124;5.196;2023-11-18T09:03:24;101870.00;;;12.80
20736;BMP180;10528;52.124;5.196;2023-11-18T09:05:55;101859.00;;;12.90
20736;BMP180;10528;52.124;5.196;2023-11-18T09:08:36;101847.00;;;12.80
20736;BMP180;10528;52.124;5.196;2023-11-18T09:11:11;101847.00;;;12.80
20736;BMP180;10528;52.124;5.196;2023-11-18T09:13:44;101840.00;;;12.80
20736;BMP180;10528;52.124;5.196;2023-11-18T09:16:21;101843.00;;;12.80
20736;BMP180;10528;52.124;5.196;2023-11-18T09:18:56;101838.00;;;12.80
20736;BMP180;10528;52.124;5.196;2023-11-18T09:21:26;101828.00;;;12.80
20736;BMP180;10528;52.124;5.196;2023-11-18T09:23:56;101820.00;;;12.80
20736;BMP180;10528;52.124;5.196;2023-11-18T09:26:23;101810.00;;;12.80
20736;BMP180;10528;52.124;5.196;2023-11-18T09:28:52;101809.00;;;12.80
20736;BMP180;10528;52.124;5.196;2023-11-18T09:31:20;101805.00;;;12.80
20736;BMP180;10528;52.124;5.196;2023-11-18T09:33:48;101798.00;;;12.80
20736;BMP180;10528;52.124;5.196;2023-11-18T09:36:19;101793.00;;;12.80
20736;BMP180;10528;52.124;5.196;2023-11-18T09:38:47;101775.00;;;12.80
20736;BMP180;10528;52.124;5.196;2023-11-18T09:41:16;101783.00;;;12.80
20736;BMP180;10528;52.124;5.196;2023-11-18T09:43:45;101775.00;;;12.80
20736;BMP180;10528;52.124;5.196;2023-11-18T09:46:15;101789.00;;;12.80
20736;BMP180;10528;52.124;5.196;2023-11-18T09:48:57;101784.00;;;12.80
20736;BMP180;10528;52.124;5.196;2023-11-18T09:51:38;101794.00;;;12.80
20736;BMP180;10528;52.124;5.196;2023-11-18T09:57:31;101786.00;;;12.80
20736;BMP180;10528;52.124;5.196;2023-11-18T10:00:08;101789.00;;;12.90
20736;BMP180;10528;52.124;5.196;2023-11-18T10:02:49;101776.00;;;12.90
20736;BMP180;10528;52.124;5.196;2023-11-18T10:05:20;101781.00;;;12.90
20736;BMP180;10528;52.124;5.196;2023-11-18T10:07:49;101779.00;;;12.90
20736;BMP180;10528;52.124;5.196;2023-11-18T10:10:17;101769.00;;;12.90
20736;BMP180;10528;52.124;5.196;2023-11-18T10:12:49;101776.00;;;13.00
20736;BMP180;10528;52.124;5.196;2023-11-18T10:15:22;101765.00;;;13.00
20736;BMP180;10528;52.124;5.196;2023-11-18T10:17:52;101760.00;;;13.00
20736;BMP180;10528;52.124;5.196;2023-11-18T10:20:51;101765.00;;;13.00
20736;BMP180;10528;52.124;5.196;2023-11-18T10:23:21;101770.00;;;13.00
20736;BMP180;10528;52.124;5.196;2023-11-18T10:25:51;101785.00;;;13.00
20736;BMP180;10528;52.124;5.196;2023-11-18T10:28:32;101777.00;;;13.00
20736;BMP180;10528;52.124;5.196;2023-11-18T10:31:02;101770.00;;;13.10
20736;BMP180;10528;52.124;5.196;2023-11-18T10:33:38;101753.00;;;13.10
20736;BMP180;10528;52.124;5.196;2023-11-18T10:36:22;101743.00;;;13.10
20736;BMP180;10528;52.124;5.196;2023-11-18T10:38:51;101736.00;;;13.10
20736;BMP180;10528;52.124;5.196;2023-11-18T10:41:22;101733.00;;;13.20
20736;BMP180;10528;52.124;5.196;2023-11-18T10:44:08;101734.00;;;13.20
20736;BMP180;10528;52.124;5.196;2023-11-18T10:47:00;101730.00;;;13.20
20736;BMP180;10528;52.124;5.196;2023-11-18T10:49:29;101715.00;;;13.20
20736;BMP180;10528;52.124;5.196;2023-11-18T10:52:05;101708.00;;;13.20
20736;BMP180;10528;52.124;5.196;2023-11-18T10:54:35;101709.00;;;13.20
20736;BMP180;10528;52.124;5.196;2023-11-18T10:57:02;101711.00;;;13.20
20736;BMP180;10528;52.124;5.196;2023-11-18T10:59:34;101716.00;;;13.20
20736;BMP180;10528;52.124;5.196;2023-11-18T11:02:18;101704.00;;;13.20
20736;BMP180;10528;52.124;5.196;2023-11-18T11:04:48;101704.00;;;13.30
20736;BMP180;10528;52.124;5.196;2023-11-18T11:07:18;101710.00;;;13.30
20736;BMP180;10528;52.124;5.196;2023-11-18T11:09:46;101697.00;;;13.30
20736;BMP180;10528;52.124;5.196;2023-11-18T11:12:15;101674.00;;;13.30
20736;BMP180;10528;52.124;5.196;2023-11-18T11:14:57;101666.00;;;13.30
20736;BMP180;10528;52.124;5.196;2023-11-18T11:17:28;101646.00;;;13.30
20736;BMP180;10528;52.124;5.196;2023-11-18T11:20:07;101597.00;;;13.30
20736;BMP180;10528;52.124;5.196;2023-11-18T11:23:25;101574.00;;;13.30
20736;BMP180;10528;52.124;5.196;2023-11-18T11:26:07;101565.00;;;13.30
20736;BMP180;10528;52.124;5.196;2023-11-18T11:28:50;101564.00;;;13.30
20736;BMP180;10528;52.124;5.196;2023-11-18T11:31:32;101573.00;;;13.30
20736;BMP180;10528;52.124;5.196;2023-11-18T11:34:23;101581.00;;;13.30
20736;BMP180;10528;52.124;5.196;2023-11-18T11:36:54;101574.00;;;13.30
20736;BMP180;10528;52.124;5.196;2023-11-18T11:39:22;101561.00;;;13.30
20736;BMP180;10528;52.124;5.196;2023-11-18T11:41:54;101551.00;;;13.40
20736;BMP180;10528;52.124;5.196;2023-11-18T11:44:23;101538.00;;;13.40
20736;BMP180;10528;52.124;5.196;2023-11-18T11:46:59;101527.00;;;13.40
20736;BMP180;10528;52.124;5.196;2023-11-18T11:49:44;101504.00;;;13.40
20736;BMP180;10528;52.124;5.196;2023-11-18T11:52:27;101508.00;;;13.40
20736;BMP180;10528;52.124;5.196;2023-11-18T11:55:09;101475.00;;;13.40
20736;BMP180;10528;52.124;5.196;2023-11-18T11:57:40;101492.00;;;13.40
20736;BMP180;10528;52.124;5.196;2023-11-18T12:00:10;101486.00;;;13.40
20736;BMP180;10528;52.124;5.196;2023-11-18T12:02:52;101470.00;;;13.50
20736;BMP180;10528;52.124;5.196;2023-11-18T12:05:25;101458.00;;;13.50
20736;BMP180;10528;52.124;5.196;2023-11-18T12:07:55;101455.00;;;13.50
20736;BMP180;10528;52.124;5.196;2023-11-18T12:10:32;101454.00;;;13.50
20736;BMP180;10528;52.124;5.196;2023-11-18T12:13:12;101461.00;;;13.50
20736;BMP180;10528;52.124;5.196;2023-11-18T12:15:55;101454.00;;;13.50
20736;BMP180;10528;52.124;5.196;2023-11-18T12:18:31;101451.00;;;13.60
20736;BMP180;10528;52.124;5.196;2023-11-18T12:21:04;101424.00;;;13.60
20736;BMP180;10528;52.124;5.196;2023-11-18T12:23:31;101423.00;;;13.60
20736;BMP180;10528;52.124;5.196;2023-11-18T12:26:01;101426.00;;;13.60
20736;BMP180;10528;52.124;5.196;2023-11-18T12:28:31;101430.00;;;13.60
20736;BMP180;10528;52.124;5.196;2023-11-18T12:31:03;101410.00;;;13.60
20736;BMP180;10528;52.124;5.196;2023-11-18T12:42:08;101408.00;;;13.60
20736;BMP180;10528;52.124;5.196;2023-11-18T12:45:16;101381.00;;;13.60
20736;BMP180;10528;52.124;5.196;2023-11-18T12:47:55;101309.00;;;13.60
20736;BMP180;10528;52.124;5.196;2023-11-18T12:50:25;101285.00;;;13.60
20736;BMP180;10528;52.124;5.196;2023-11-18T12:52:56;101272.00;;;13.60
20736;BMP180;10528;52.124;5.196;2023-11-18T12:55:24;101281.00;;;13.60
20736;BMP180;10528;52.124;5.196;2023-11-18T12:57:53;101296.00;;;13.60
20736;BMP180;10528;52.124;5.196;2023-11-18T13:00:20;101276.00;;;13.60
20736;BMP180;10528;52.124;5.196;2023-11-18T13:02:54;101292.00;;;13.70
20736;BMP180;10528;52.124;5.196;2023-11-18T13:05:22;101281.00;;;13.60
20736;BMP180;10528;52.124;5.196;2023-11-18T13:07:49;101273.00;;;13.70
20736;BMP180;10528;52.124;5.196;2023-11-18T13:10:17;101291.00;;;13.70
20736;BMP180;10528;52.124;5.196;2023-11-18T13:12:44;101303.00;;;13.70
20736;BMP180;10528;52.124;5.196;2023-11-18T13:15:12;101300.00;;;13.70
20736;BMP180;10528;52.124;5.196;2023-11-18T13:17:39;101286.00;;;13.70
20736;BMP180;10528;52.124;5.196;2023-11-18T13:20:14;101294.00;;;13.70
20736;BMP180;10528;52.124;5.196;2023-11-18T13:22:42;101287.00;;;13.80
20736;BMP180;10528;52.124;5.196;2023-11-18T13:25:14;101276.00;;;13.80
20736;BMP180;10528;52.124;5.196;2023-11-18T13:27:44;101258.00;;;13.80
20736;BMP180;10528;52.124;5.196;2023-11-18T13:30:11;101262.00;;;13.80
20736;BMP180;10528;52.124;5.196;2023-11-18T13:32:42;101236.00;;;13.80
20736;BMP180;10528;52.124;5.196;2023-11-18T13:35:10;101233.00;;;13.80
20736;BMP180;10528;52.124;5.196;2023-11-18T13:37:40;101241.00;;;13.80
20736;BMP180;10528;52.124;5.196;2023-11-18T13:40:09;101238.00;;;13.90
20736;BMP180;10528;52.124;5.196;2023-11-18T13:42:36;101235.00;;;13.90
20736;BMP180;10528;52.124;5.196;2023-11-18T13:45:11;101238.00;;;13.90
20736;BMP180;10528;52.124;5.196;2023-11-18T13:47:56;101226.00;;;13.90
20736;BMP180;10528;52.124;5.196;2023-11-18T13:50:26;101219.00;;;13.90
20736;BMP180;10528;52.124;5.196;2023-11-18T13:52:53;101213.00;;;13.90
20736;BMP180;10528;52.124;5.196;2023-11-18T13:55:21;101206.00;;;13.90
20736;BMP180;10528;52.124;5.196;2023-11-18T13:57:55;101196.00;;;13.90
20736;BMP180;10528;52.124;5.196;2023-11-18T14:00:28;101182.00;;;13.90
20736;BMP180;10528;52.124;5.196;2023-11-18T14:02:59;101175.00;;;13.90
20736;BMP180;10528;52.124;5.196;2023-11-18T14:05:27;101152.00;;;14.00
20736;BMP180;10528;52.124;5.196;2023-11-18T14:07:54;101160.00;;;14.00
20736;BMP180;10528;52.124;5.196;2023-11-18T14:10:35;101164.00;;;14.00
20736;BMP180;10528;52.124;5.196;2023-11-18T14:13:07;101153.00;;;13.90
20736;BMP180;10528;52.124;5.196;2023-11-18T14:15:39;101147.00;;;14.00
20736;BMP180;10528;52.124;5.196;2023-11-18T14:18:09;101136.00;;;14.00
20736;BMP180;10528;52.124;5.196;2023-11-18T14:20:36;101142.00;;;14.00
20736;BMP180;10528;52.124;5.196;2023-11-18T14:23:04;101138.00;;;14.00
20736;BMP180;10528;52.124;5.196;2023-11-18T14:25:31;101127.00;;;14.00
20736;BMP180;10528;52.124;5.196;2023-11-18T14:27:59;101119.00;;;14.00
20736;BMP180;10528;52.124;5.196;2023-11-18T14:30:26;101108.00;;;14.00
20736;BMP180;10528;52.124;5.196;2023-11-18T14:32:53;101100.00;;;14.00